Time;durP1;ratioP1;P1;durP2;ratioP2;P2;SDS_P1;SDS_P2;PMS_P1;PMS_P2;Temp;Humidity;BMP_temperature;BMP_pressure;BME280_temperature;BME280_humidity;BME280_pressure;Samples;Min_cycle;Max_cycle;Signal;HPM_P1;HPM_P2
2020/12/11 00:00:15;;;;;;;37.60;18.23;;;;;;;;;;4969705;28;20417;-80
2020/12/11 00:02:41;;;;;;;35.43;18.00;;;;;;;;;;4969292;28;20290;-80
2020/12/11 00:05:07;;;;;;;35.47;19.13;;;;;;;;;;4965648;28;20290;-80
2020/12/11 00:07:34;;;;;;;38.37;19.20;;;;;;;;;;4966745;28;20286;-80
2020/12/11 00:10:01;;;;;;;40.77;20.40;;;;;;;;;;4964119;28;20807;-78
2020/12/11 00:12:27;;;;;;;41.53;19.23;;;;;;;;;;4973493;28;20282;-80
2020/12/11 00:14:53;;;;;;;38.07;19.20;;;;;;;;;;4965544;28;20297;-78
2020/12/11 00:17:19;;;;;;;36.90;19.57;;;;;;;;;;4969452;28;20278;-79
2020/12/11 00:19:45;;;;;;;40.60;19.03;;;;;;;;;;4966375;28;20374;-79
2020/12/11 00:22:14;;;;;;;41.80;19.33;;;;;;;;;;4968025;28;20371;-81
2020/12/11 00:24:41;;;;;;;43.27;20.07;;;;;;;;;;4968572;28;20289;-79
2020/12/11 00:27:07;;;;;;;39.70;21.03;;;;;;;;;;4963460;28;20362;-80
2020/12/11 00:29:33;;;;;;;40.00;20.27;;;;;;;;;;4975156;28;20270;-80
2020/12/11 00:32:04;;;;;;;42.63;19.70;;;;;;;;;;4957968;28;20316;-80
2020/12/11 00:34:31;;;;;;;44.53;22.67;;;;;;;;;;4964725;28;20273;-80
2020/12/11 00:36:57;;;;;;;43.67;20.37;;;;;;;;;;4957802;28;20286;-80
2020/12/11 00:39:23;;;;;;;36.63;20.00;;;;;;;;;;4964337;28;20274;-79
2020/12/11 00:41:49;;;;;;;43.40;20.37;;;;;;;;;;4954061;28;20290;-79
2020/12/11 00:44:16;;;;;;;36.17;18.77;;;;;;;;;;4959779;28;20670;-80
2020/12/11 00:46:42;;;;;;;43.77;21.13;;;;;;;;;;4968980;28;20263;-80
2020/12/11 00:49:08;;;;;;;41.90;20.90;;;;;;;;;;4966289;28;20279;-80
2020/12/11 00:51:34;;;;;;;42.80;20.67;;;;;;;;;;4968657;28;20283;-78
2020/12/11 00:54:00;;;;;;;43.27;21.23;;;;;;;;;;4958978;28;20274;-78
2020/12/11 00:56:26;;;;;;;39.97;20.67;;;;;;;;;;4967185;28;20539;-79
2020/12/11 00:58:53;;;;;;;38.90;21.73;;;;;;;;;;4970012;28;20297;-80
2020/12/11 01:01:19;;;;;;;35.17;20.20;;;;;;;;;;4969567;28;20321;-80
2020/12/11 01:03:45;;;;;;;35.63;19.10;;;;;;;;;;4967417;28;20681;-79
2020/12/11 01:06:11;;;;;;;35.13;21.10;;;;;;;;;;4965161;28;20319;-80
2020/12/11 01:08:38;;;;;;;36.23;21.13;;;;;;;;;;4975703;28;20300;-78
2020/12/11 01:11:04;;;;;;;34.13;19.80;;;;;;;;;;4970770;28;20361;-80
2020/12/11 01:13:30;;;;;;;39.70;21.97;;;;;;;;;;4972042;28;20273;-79
2020/12/11 01:15:56;;;;;;;31.60;17.47;;;;;;;;;;4968500;28;20270;-79
2020/12/11 01:18:22;;;;;;;30.07;18.53;;;;;;;;;;4968249;28;20789;-79
2020/12/11 01:20:50;;;;;;;32.10;19.07;;;;;;;;;;4968684;28;20274;-80
2020/12/11 01:23:16;;;;;;;27.10;17.50;;;;;;;;;;4966753;28;20336;-79
2020/12/11 01:25:42;;;;;;;29.33;17.70;;;;;;;;;;4974868;28;20278;-80
2020/12/11 01:28:08;;;;;;;27.20;16.73;;;;;;;;;;4971980;28;20266;-80
2020/12/11 01:30:34;;;;;;;24.93;16.03;;;;;;;;;;4970348;28;20277;-80
2020/12/11 01:33:00;;;;;;;28.70;16.93;;;;;;;;;;4959247;28;20283;-79
2020/12/11 01:35:26;;;;;;;29.17;18.53;;;;;;;;;;4970286;28;20266;-79
2020/12/11 01:37:52;;;;;;;27.73;18.27;;;;;;;;;;4970588;28;20693;-79
2020/12/11 01:40:18;;;;;;;32.20;18.37;;;;;;;;;;4960080;28;20274;-78
2020/12/11 01:42:45;;;;;;;25.60;16.37;;;;;;;;;;4967491;28;20289;-79
2020/12/11 01:45:11;;;;;;;26.83;16.80;;;;;;;;;;4972268;28;20274;-80
2020/12/11 01:47:40;;;;;;;29.27;18.13;;;;;;;;;;4959024;28;20350;-80
2020/12/11 01:50:07;;;;;;;31.47;19.07;;;;;;;;;;4976575;28;20282;-79
2020/12/11 01:52:34;;;;;;;28.60;18.13;;;;;;;;;;4959986;28;20314;-79
2020/12/11 01:55:00;;;;;;;31.27;19.80;;;;;;;;;;4986992;28;20345;-79
2020/12/11 01:57:44;;;;;;;32.63;19.90;;;;;;;;;;4954309;28;20781;-79
2020/12/11 02:00:10;;;;;;;31.37;19.10;;;;;;;;;;4967952;28;20291;-79
2020/12/11 02:02:37;;;;;;;27.80;18.03;;;;;;;;;;4967853;28;20321;-78
2020/12/11 02:05:09;;;;;;;31.40;18.47;;;;;;;;;;4961277;28;20310;-79
2020/12/11 02:07:39;;;;;;;30.27;17.37;;;;;;;;;;4968025;28;20274;-79
2020/12/11 02:10:06;;;;;;;29.03;17.93;;;;;;;;;;4975600;28;20270;-80
2020/12/11 02:12:32;;;;;;;30.80;19.07;;;;;;;;;;4969056;28;20278;-79
2020/12/11 02:14:59;;;;;;;31.47;20.20;;;;;;;;;;4966366;28;20282;-79
2020/12/11 02:17:27;;;;;;;28.80;18.67;;;;;;;;;;4963028;28;20286;-79
2020/12/11 02:19:54;;;;;;;30.47;19.23;;;;;;;;;;4962853;28;20937;-79
2020/12/11 02:22:20;;;;;;;32.57;20.23;;;;;;;;;;4973715;28;20287;-79
2020/12/11 02:24:47;;;;;;;29.37;18.87;;;;;;;;;;4961385;28;20287;-79
2020/12/11 02:27:14;;;;;;;25.77;17.00;;;;;;;;;;4955064;28;20267;-79
2020/12/11 02:29:40;;;;;;;27.63;17.60;;;;;;;;;;4958944;28;20281;-79
2020/12/11 02:32:06;;;;;;;29.80;18.13;;;;;;;;;;4967682;28;20626;-79
2020/12/11 02:34:33;;;;;;;26.10;15.47;;;;;;;;;;4969418;28;20965;-79
2020/12/11 02:37:05;;;;;;;32.07;19.23;;;;;;;;;;4954092;28;20620;-79
2020/12/11 02:39:32;;;;;;;32.37;20.07;;;;;;;;;;4955249;28;20279;-79
2020/12/11 02:41:58;;;;;;;30.77;19.67;;;;;;;;;;4965163;28;20289;-79
2020/12/11 02:44:24;;;;;;;29.93;17.67;;;;;;;;;;4964714;28;20279;-79
2020/12/11 02:46:50;;;;;;;31.27;18.90;;;;;;;;;;4972642;28;20337;-79
2020/12/11 02:49:16;;;;;;;31.63;19.13;;;;;;;;;;4968934;28;20353;-79
2020/12/11 02:51:42;;;;;;;32.43;19.17;;;;;;;;;;4968930;28;20279;-79
2020/12/11 02:54:08;;;;;;;31.80;20.13;;;;;;;;;;4967759;28;20278;-78
2020/12/11 02:56:35;;;;;;;31.27;18.63;;;;;;;;;;4964174;28;20279;-79
2020/12/11 02:59:01;;;;;;;33.50;19.47;;;;;;;;;;4965427;28;20770;-79
2020/12/11 03:01:27;;;;;;;35.37;19.43;;;;;;;;;;4969237;28;20290;-80
2020/12/11 03:03:56;;;;;;;28.90;18.83;;;;;;;;;;4967538;28;20762;-79
2020/12/11 03:06:29;;;;;;;29.87;18.53;;;;;;;;;;4962544;28;20274;-80
2020/12/11 03:08:55;;;;;;;26.80;17.43;;;;;;;;;;4965124;28;20286;-79
2020/12/11 03:11:21;;;;;;;34.37;19.27;;;;;;;;;;4988937;28;20329;-79
2020/12/11 03:13:47;;;;;;;30.83;19.37;;;;;;;;;;4973384;28;20353;-79
2020/12/11 03:16:16;;;;;;;30.87;19.47;;;;;;;;;;4955367;28;20269;-80
2020/12/11 03:18:42;;;;;;;31.80;19.40;;;;;;;;;;4972113;28;20286;-79
2020/12/11 03:21:09;;;;;;;31.00;19.23;;;;;;;;;;4974355;28;20306;-78
2020/12/11 03:23:35;;;;;;;33.70;21.13;;;;;;;;;;4969252;28;20314;-79
2020/12/11 03:26:01;;;;;;;31.83;19.03;;;;;;;;;;4968194;28;20275;-80
2020/12/11 03:28:27;;;;;;;29.40;20.33;;;;;;;;;;4972172;28;20961;-79
2020/12/11 03:30:53;;;;;;;32.27;18.87;;;;;;;;;;4973277;28;20263;-79
2020/12/11 03:33:19;;;;;;;32.93;19.93;;;;;;;;;;4970425;28;20266;-80
2020/12/11 03:35:45;;;;;;;35.00;20.97;;;;;;;;;;4966035;28;20325;-79
2020/12/11 03:38:11;;;;;;;33.33;21.10;;;;;;;;;;4967362;28;20293;-79
2020/12/11 03:40:37;;;;;;;32.90;21.30;;;;;;;;;;4968727;28;20267;-79
2020/12/11 03:43:03;;;;;;;33.73;19.27;;;;;;;;;;4986521;28;20421;-79
2020/12/11 03:45:29;;;;;;;36.23;21.00;;;;;;;;;;4977023;28;20274;-78
2020/12/11 03:47:55;;;;;;;34.27;20.50;;;;;;;;;;4971131;28;20824;-79
2020/12/11 03:50:22;;;;;;;32.37;20.30;;;;;;;;;;4972140;28;20262;-79
2020/12/11 03:52:48;;;;;;;35.27;20.93;;;;;;;;;;4972976;28;20274;-78
2020/12/11 03:55:15;;;;;;;36.23;21.70;;;;;;;;;;4975633;28;20775;-77
2020/12/11 03:57:41;;;;;;;37.17;21.83;;;;;;;;;;4953489;28;20271;-79
2020/12/11 04:00:07;;;;;;;36.63;21.33;;;;;;;;;;4970263;28;20289;-80
2020/12/11 04:02:36;;;;;;;34.70;20.23;;;;;;;;;;4981070;28;20290;-79
2020/12/11 04:05:03;;;;;;;31.73;19.10;;;;;;;;;;4966149;28;20678;-80
2020/12/11 04:07:29;;;;;;;36.37;20.63;;;;;;;;;;4952267;28;20287;-79
2020/12/11 04:09:55;;;;;;;36.80;22.60;;;;;;;;;;4959413;28;20277;-80
2020/12/11 04:12:21;;;;;;;39.60;23.27;;;;;;;;;;4969197;28;20281;-78
2020/12/11 04:14:50;;;;;;;39.90;23.17;;;;;;;;;;4965206;28;20278;-80
2020/12/11 04:17:16;;;;;;;42.57;25.33;;;;;;;;;;4969947;28;20282;-79
2020/12/11 04:19:42;;;;;;;47.20;27.10;;;;;;;;;;4966725;28;20817;-79
2020/12/11 04:22:08;;;;;;;50.80;29.93;;;;;;;;;;4970343;28;20865;-79
2020/12/11 04:24:34;;;;;;;51.03;28.07;;;;;;;;;;4961292;28;20367;-79
2020/12/11 04:27:00;;;;;;;52.10;28.70;;;;;;;;;;4971412;28;20274;-76
2020/12/11 04:29:27;;;;;;;34.10;17.47;;;;;;;;;;4969810;28;20286;-77
2020/12/11 04:31:56;;;;;;;49.23;29.23;;;;;;;;;;4961302;28;20360;-80
2020/12/11 04:34:23;;;;;;;41.43;24.23;;;;;;;;;;4960269;28;20661;-79
2020/12/11 04:36:50;;;;;;;48.10;25.87;;;;;;;;;;4956012;28;20392;-80
2020/12/11 04:39:16;;;;;;;42.80;24.27;;;;;;;;;;4963793;28;20279;-79
2020/12/11 04:41:44;;;;;;;40.80;24.10;;;;;;;;;;4970590;28;20784;-78
2020/12/11 04:44:11;;;;;;;42.83;25.10;;;;;;;;;;4964346;28;20330;-79
2020/12/11 04:46:37;;;;;;;39.13;24.27;;;;;;;;;;4964084;28;20262;-80
2020/12/11 04:49:04;;;;;;;39.97;23.60;;;;;;;;;;4969186;28;20269;-79
2020/12/11 04:51:31;;;;;;;44.17;25.27;;;;;;;;;;4963299;28;20282;-80
2020/12/11 04:53:59;;;;;;;46.20;24.33;;;;;;;;;;4969445;28;20365;-80
2020/12/11 04:56:25;;;;;;;48.83;25.37;;;;;;;;;;4971357;28;20277;-79
2020/12/11 04:58:52;;;;;;;46.40;24.93;;;;;;;;;;4963855;28;20631;-78
2020/12/11 05:01:28;;;;;;;48.57;26.50;;;;;;;;;;4965511;28;20308;-80
2020/12/11 05:03:54;;;;;;;50.97;27.20;;;;;;;;;;4966132;28;20266;-80
2020/12/11 05:06:20;;;;;;;48.90;26.30;;;;;;;;;;4968448;28;20279;-80
2020/12/11 05:08:47;;;;;;;51.83;27.93;;;;;;;;;;4973162;28;20297;-80
2020/12/11 05:11:29;;;;;;;60.07;28.97;;;;;;;;;;4969392;28;21157;-79
2020/12/11 05:13:55;;;;;;;61.40;28.70;;;;;;;;;;4973460;28;20274;-80
2020/12/11 05:16:21;;;;;;;62.03;30.47;;;;;;;;;;4972336;28;20274;-80
2020/12/11 05:19:02;;;;;;;76.37;32.80;;;;;;;;;;4963584;28;20310;-81
2020/12/11 05:21:28;;;;;;;52.57;28.13;;;;;;;;;;4961252;28;20283;-79
2020/12/11 05:23:54;;;;;;;43.87;24.57;;;;;;;;;;4968525;28;20267;-79
2020/12/11 05:26:21;;;;;;;44.13;24.10;;;;;;;;;;4964304;28;20282;-80
2020/12/11 05:28:47;;;;;;;46.13;25.53;;;;;;;;;;4962240;28;20322;-80
2020/12/11 05:31:14;;;;;;;44.67;24.67;;;;;;;;;;4972728;28;20341;-80
2020/12/11 05:34:00;;;;;;;49.40;27.17;;;;;;;;;;4969064;28;20364;-80
2020/12/11 05:36:26;;;;;;;47.90;25.53;;;;;;;;;;4979386;28;20475;-78
2020/12/11 05:38:52;;;;;;;48.17;25.20;;;;;;;;;;4990582;28;20273;-79
2020/12/11 05:41:38;;;;;;;46.43;25.90;;;;;;;;;;4974204;28;20391;-80
2020/12/11 05:44:22;;;;;;;54.70;26.53;;;;;;;;;;4962025;28;20317;-80
2020/12/11 05:46:47;;;;;;;;;;;;;;;;;;4969142;28;20345;-80
2020/12/11 05:49:27;;;;;;;47.07;25.70;;;;;;;;;;4965929;28;20320;-79
2020/12/11 05:51:55;;;;;;;45.87;24.80;;;;;;;;;;4973976;28;21041;-80
2020/12/11 05:54:24;;;;;;;54.37;26.90;;;;;;;;;;4981528;28;20269;-80
2020/12/11 05:56:53;;;;;;;54.23;28.97;;;;;;;;;;4970910;28;20268;-81
2020/12/11 05:59:21;;;;;;;50.23;26.13;;;;;;;;;;4983833;28;20285;-80
2020/12/11 06:01:51;;;;;;;50.30;27.13;;;;;;;;;;4971248;28;20859;-81
2020/12/11 06:04:18;;;;;;;57.43;27.80;;;;;;;;;;4967306;28;20267;-80
2020/12/11 06:06:46;;;;;;;65.83;31.70;;;;;;;;;;4964346;28;20285;-80
2020/12/11 06:09:13;;;;;;;60.80;29.37;;;;;;;;;;4980598;28;20368;-80
2020/12/11 06:11:45;;;;;;;52.17;25.20;;;;;;;;;;4974764;28;20773;-81
2020/12/11 06:14:17;;;;;;;47.17;26.13;;;;;;;;;;4983901;28;20327;-79
2020/12/11 06:16:44;;;;;;;50.37;28.87;;;;;;;;;;4973254;28;20286;-81
2020/12/11 06:19:10;;;;;;;55.83;29.40;;;;;;;;;;4963760;28;20297;-80
2020/12/11 06:21:37;;;;;;;57.67;28.37;;;;;;;;;;4972197;28;20794;-79
2020/12/11 06:24:04;;;;;;;58.90;30.53;;;;;;;;;;4968185;28;20274;-80
2020/12/11 06:26:30;;;;;;;59.13;29.83;;;;;;;;;;4971645;28;20316;-80
2020/12/11 06:28:56;;;;;;;61.67;30.53;;;;;;;;;;4970799;28;20278;-81
2020/12/11 06:31:23;;;;;;;58.13;30.70;;;;;;;;;;4970324;28;20275;-80
2020/12/11 06:33:50;;;;;;;59.20;30.67;;;;;;;;;;4983191;28;20285;-81
2020/12/11 06:36:17;;;;;;;55.73;27.63;;;;;;;;;;4966285;28;20274;-82
2020/12/11 06:38:44;;;;;;;57.77;28.47;;;;;;;;;;4968578;28;20310;-80
2020/12/11 06:41:11;;;;;;;52.10;26.97;;;;;;;;;;4973483;28;20270;-79
2020/12/11 06:43:39;;;;;;;53.40;26.93;;;;;;;;;;4963983;28;20298;-81
2020/12/11 06:46:18;;;;;;;53.13;26.70;;;;;;;;;;4967696;28;20270;-81
2020/12/11 06:49:03;;;;;;;56.53;28.07;;;;;;;;;;4973398;28;20286;-80
2020/12/11 06:51:29;;;;;;;53.20;27.00;;;;;;;;;;4970352;28;20321;-80
2020/12/11 06:53:55;;;;;;;53.63;26.63;;;;;;;;;;4971641;28;20335;-81
2020/12/11 06:56:41;;;;;;;55.20;28.63;;;;;;;;;;4971435;28;20296;-82
2020/12/11 06:59:25;;;;;;;55.23;24.30;;;;;;;;;;4971570;28;20289;-81
2020/12/11 07:01:54;;;;;;;52.37;26.67;;;;;;;;;;4982794;28;20754;-80
2020/12/11 07:04:21;;;;;;;51.23;26.00;;;;;;;;;;4974827;28;20289;-81
2020/12/11 07:06:51;;;;;;;45.23;20.17;;;;;;;;;;4973258;28;20279;-82
2020/12/11 07:09:17;;;;;;;52.00;26.33;;;;;;;;;;4971840;28;20289;-81
2020/12/11 07:11:44;;;;;;;49.40;25.97;;;;;;;;;;4968174;28;20298;-80
2020/12/11 07:14:11;;;;;;;47.40;22.37;;;;;;;;;;4981268;28;20772;-80
2020/12/11 07:16:44;;;;;;;44.60;24.60;;;;;;;;;;4970016;28;20274;-80
2020/12/11 07:19:11;;;;;;;50.70;27.70;;;;;;;;;;4968886;28;20266;-81
2020/12/11 07:21:39;;;;;;;46.50;24.57;;;;;;;;;;4959933;28;20881;-80
2020/12/11 07:24:07;;;;;;;45.20;22.90;;;;;;;;;;4970172;28;20281;-80
2020/12/11 07:26:33;;;;;;;51.97;28.07;;;;;;;;;;4962917;28;20287;-79
2020/12/11 07:29:08;;;;;;;53.27;27.07;;;;;;;;;;4957221;28;20713;-81
2020/12/11 07:31:41;;;;;;;45.00;24.30;;;;;;;;;;4976130;28;20278;-81
2020/12/11 07:34:23;;;;;;;40.85;23.05;;;;;;;;;;4963333;28;20345;-82
2020/12/11 07:36:54;;;;;;;41.50;22.80;;;;;;;;;;4969942;28;20059;-81
2020/12/11 07:39:24;;;;;;;44.40;22.27;;;;;;;;;;4989778;28;20333;-81
2020/12/11 07:41:52;;;;;;;41.83;23.83;;;;;;;;;;4967652;28;20286;-80
2020/12/11 07:44:24;;;;;;;43.87;23.70;;;;;;;;;;4959154;28;20322;-80
2020/12/11 07:46:51;;;;;;;36.90;19.63;;;;;;;;;;4957768;28;20275;-80
2020/12/11 07:49:18;;;;;;;42.83;22.90;;;;;;;;;;4965425;28;20403;-82
2020/12/11 07:51:48;;;;;;;42.03;22.07;;;;;;;;;;4968943;28;20377;-81
2020/12/11 07:54:15;;;;;;;38.57;21.27;;;;;;;;;;4968371;28;21323;-78
2020/12/11 07:56:41;;;;;;;44.00;23.17;;;;;;;;;;4965550;28;20279;-81
2020/12/11 07:59:14;;;;;;;40.37;20.80;;;;;;;;;;4970372;28;20342;-79
2020/12/11 08:01:42;;;;;;;30.52;16.85;;;;;;;;;;4976204;28;20353;-82
2020/12/11 08:04:08;;;;;;;40.87;22.67;;;;;;;;;;4974518;28;20023;-81
2020/12/11 08:06:34;;;;;;;35.63;18.90;;;;;;;;;;4955297;28;20330;-80
2020/12/11 08:09:13;;;;;;;38.43;20.93;;;;;;;;;;4971505;28;20278;-82
2020/12/11 08:11:43;;;;;;;39.63;21.47;;;;;;;;;;4972082;28;20349;-82
2020/12/11 08:14:09;;;;;;;39.23;21.63;;;;;;;;;;4966679;28;20273;-82
2020/12/11 08:16:36;;;;;;;41.23;23.43;;;;;;;;;;4959978;28;20642;-79
2020/12/11 08:19:02;;;;;;;40.70;22.00;;;;;;;;;;4966424;28;20293;-82
2020/12/11 08:21:29;;;;;;;37.57;20.83;;;;;;;;;;4958583;28;20378;-81
2020/12/11 08:23:55;;;;;;;36.47;18.57;;;;;;;;;;4989351;28;20321;-81
2020/12/11 08:26:22;;;;;;;35.33;20.70;;;;;;;;;;4969873;28;20270;-82
2020/12/11 08:28:53;;;;;;;39.97;20.87;;;;;;;;;;4964058;28;20349;-81
2020/12/11 08:31:24;;;;;;;36.87;19.63;;;;;;;;;;4961559;28;20282;-79
2020/12/11 08:33:51;;;;;;;35.23;20.50;;;;;;;;;;4968784;28;20329;-82
2020/12/11 08:36:22;;;;;;;37.43;21.80;;;;;;;;;;4971596;28;20286;-81
2020/12/11 08:39:09;;;;;;;38.70;22.17;;;;;;;;;;4960806;28;20266;-81
2020/12/11 08:41:39;;;;;;;34.87;18.80;;;;;;;;;;4984923;28;20278;-80
2020/12/11 08:44:11;;;;;;;35.63;20.70;;;;;;;;;;4970792;28;20332;-80
2020/12/11 08:46:57;;;;;;;36.07;18.80;;;;;;;;;;4963286;28;20358;-81
2020/12/11 08:49:40;;;;;;;36.53;21.23;;;;;;;;;;4972418;28;20270;-80
2020/12/11 08:52:07;;;;;;;37.08;21.42;;;;;;;;;;4967259;28;20287;-84
2020/12/11 08:54:33;;;;;;;37.47;20.83;;;;;;;;;;4973671;28;20035;-81
2020/12/11 08:56:59;;;;;;;36.03;22.20;;;;;;;;;;4973191;28;20274;-81
2020/12/11 08:59:25;;;;;;;37.33;20.93;;;;;;;;;;4971635;28;20278;-81
2020/12/11 09:01:51;;;;;;;38.20;22.57;;;;;;;;;;4979545;28;20298;-81
2020/12/11 09:04:17;;;;;;;35.10;21.83;;;;;;;;;;4974964;28;20286;-82
2020/12/11 09:06:44;;;;;;;29.13;17.63;;;;;;;;;;4966966;28;20282;-84
2020/12/11 09:09:10;;;;;;;33.33;19.43;;;;;;;;;;4974847;28;20634;-82
2020/12/11 09:11:37;;;;;;;29.63;19.70;;;;;;;;;;4965640;28;20325;-84
2020/12/11 09:14:03;;;;;;;28.97;17.77;;;;;;;;;;4986792;28;20266;-85
2020/12/11 09:16:29;;;;;;;25.03;17.47;;;;;;;;;;4969271;28;20077;-82
2020/12/11 09:19:03;;;;;;;27.03;18.30;;;;;;;;;;4969636;28;20050;-84
2020/12/11 09:21:29;;;;;;;28.57;17.77;;;;;;;;;;4967946;28;20073;-83
2020/12/11 09:23:58;;;;;;;25.67;18.07;;;;;;;;;;4967645;28;20059;-82
2020/12/11 09:26:26;;;;;;;21.53;15.60;;;;;;;;;;4962876;28;20047;-83
2020/12/11 09:29:01;;;;;;;23.00;17.37;;;;;;;;;;4962412;28;20095;-83
2020/12/11 09:31:30;;;;;;;25.53;18.23;;;;;;;;;;4969355;28;20039;-83
2020/12/11 09:33:57;;;;;;;25.63;18.60;;;;;;;;;;4965885;28;20199;-82
2020/12/11 09:36:24;;;;;;;28.57;18.40;;;;;;;;;;4970421;28;20030;-83
2020/12/11 09:38:50;;;;;;;28.70;18.90;;;;;;;;;;4966589;28;20030;-83
2020/12/11 09:41:19;;;;;;;26.70;18.03;;;;;;;;;;4962072;28;20512;-83
2020/12/11 09:46:48;;;;;;;28.83;19.27;;;;;;;;;;4969674;28;20035;-84
2020/12/11 09:49:24;;;;;;;35.13;19.63;;;;;;;;;;4971929;28;20030;-83
2020/12/11 09:52:05;;;;;;;36.43;21.43;;;;;;;;;;4967211;28;20624;-80
2020/12/11 09:54:33;;;;;;;32.13;20.33;;;;;;;;;;4969368;28;20355;-83
2020/12/11 09:57:00;;;;;;;30.07;18.07;;;;;;;;;;4982911;28;20109;-83
2020/12/11 09:59:32;;;;;;;32.87;21.90;;;;;;;;;;4969269;28;20325;-82
2020/12/11 10:04:27;;;;;;;29.83;17.10;;;;;;;;;;4967267;28;20361;-79
2020/12/11 10:06:53;;;;;;;31.53;19.23;;;;;;;;;;4964367;28;20267;-81
2020/12/11 10:09:19;;;;;;;30.13;18.70;;;;;;;;;;4972213;28;20286;-79
2020/12/11 10:11:45;;;;;;;30.43;19.33;;;;;;;;;;4968849;28;20286;-81
2020/12/11 10:16:38;;;;;;;28.67;17.80;;;;;;;;;;4957164;28;20296;-84
2020/12/11 10:19:04;;;;;;;29.23;19.60;;;;;;;;;;4966861;28;20286;-81
2020/12/11 10:21:30;;;;;;;28.83;19.17;;;;;;;;;;4955770;28;20267;-84
2020/12/11 10:23:56;;;;;;;28.93;17.60;;;;;;;;;;4968118;28;20058;-81
2020/12/11 10:26:22;;;;;;;32.20;19.00;;;;;;;;;;4961771;28;20043;-82
2020/12/11 10:28:48;;;;;;;28.43;16.40;;;;;;;;;;4967943;28;20601;-84
2020/12/11 10:31:15;;;;;;;30.57;19.27;;;;;;;;;;4964195;28;20023;-82
2020/12/11 10:33:41;;;;;;;28.23;18.03;;;;;;;;;;4987624;28;20035;-80
2020/12/11 10:36:07;;;;;;;29.60;17.90;;;;;;;;;;4968471;28;20054;-83
2020/12/11 10:38:35;;;;;;;29.23;18.40;;;;;;;;;;4973784;28;20116;-81
2020/12/11 10:41:01;;;;;;;28.33;18.57;;;;;;;;;;4963464;28;20759;-82
2020/12/11 10:43:27;;;;;;;27.67;17.57;;;;;;;;;;4962081;28;20042;-82
2020/12/11 10:45:53;;;;;;;30.40;18.83;;;;;;;;;;4968413;28;20031;-85
2020/12/11 10:48:21;;;;;;;28.67;18.63;;;;;;;;;;4973028;28;20550;-83
2020/12/11 10:50:47;;;;;;;27.13;18.70;;;;;;;;;;4977907;28;20031;-83
2020/12/11 10:53:15;;;;;;;25.73;16.07;;;;;;;;;;4970088;28;20038;-84
2020/12/11 10:55:41;;;;;;;28.87;17.93;;;;;;;;;;4976978;28;20138;-83
2020/12/11 10:58:07;;;;;;;30.60;19.20;;;;;;;;;;4975994;28;20082;-83
2020/12/11 11:00:35;;;;;;;27.13;17.57;;;;;;;;;;4972349;28;20049;-84
2020/12/11 11:03:03;;;;;;;27.13;17.53;;;;;;;;;;4961159;28;20113;-83
2020/12/11 11:05:30;;;;;;;25.90;16.50;;;;;;;;;;4967705;28;20494;-82
2020/12/11 11:07:58;;;;;;;26.40;17.23;;;;;;;;;;4970299;28;20038;-83
2020/12/11 11:10:32;;;;;;;26.23;17.03;;;;;;;;;;4973587;28;20035;-82
2020/12/11 11:13:18;;;;;;;25.50;15.77;;;;;;;;;;4965813;28;20050;-83
2020/12/11 11:15:47;;;;;;;28.03;17.07;;;;;;;;;;4974775;28;20046;-83
2020/12/11 11:29:16;;;;;;;29.93;18.60;;;;;;;;;;4965592;28;20034;-83
2020/12/11 11:31:46;;;;;;;27.58;16.80;;;;;;;;;;4976672;28;20031;-82
2020/12/11 11:34:12;;;;;;;27.07;16.33;;;;;;;;;;4972118;28;20449;-83
2020/12/11 11:36:38;;;;;;;26.13;16.90;;;;;;;;;;4969379;28;20018;-82
2020/12/11 11:39:04;;;;;;;22.73;15.03;;;;;;;;;;4963871;28;20023;-81
2020/12/11 11:41:46;;;;;;;24.47;15.50;;;;;;;;;;4969043;28;20038;-82
2020/12/11 11:46:39;;;;;;;23.47;14.70;;;;;;;;;;4970536;28;20039;-82
2020/12/11 11:49:06;;;;;;;23.33;15.63;;;;;;;;;;4976715;28;20022;-83
2020/12/11 11:51:46;;;;;;;27.00;17.20;;;;;;;;;;4979001;28;20038;-82
2020/12/11 11:54:12;;;;;;;26.50;15.53;;;;;;;;;;4979172;28;20030;-82
2020/12/11 11:56:38;;;;;;;26.00;15.83;;;;;;;;;;4972300;28;20038;-82
2020/12/11 11:59:04;;;;;;;25.40;15.03;;;;;;;;;;4976494;28;20094;-83
2020/12/11 12:01:30;;;;;;;28.37;17.50;;;;;;;;;;4976579;28;20011;-81
2020/12/11 12:03:58;;;;;;;26.90;17.17;;;;;;;;;;4984397;28;20039;-82
2020/12/11 12:06:24;;;;;;;28.20;17.90;;;;;;;;;;4975512;28;20037;-80
2020/12/11 12:08:51;;;;;;;29.50;16.30;;;;;;;;;;4971834;28;20101;-84
2020/12/11 12:11:17;;;;;;;27.30;16.57;;;;;;;;;;4979411;28;20980;-80
2020/12/11 12:13:43;;;;;;;27.83;16.90;;;;;;;;;;4977279;28;20223;-79
2020/12/11 12:16:09;;;;;;;24.97;16.13;;;;;;;;;;4986322;28;20035;-81
2020/12/11 12:18:38;;;;;;;24.03;15.23;;;;;;;;;;4987592;28;20037;-80
2020/12/11 12:21:11;;;;;;;25.57;17.40;;;;;;;;;;4985973;28;20010;-78
2020/12/11 12:29:10;;;;;;;28.17;17.03;;;;;;;;;;4968747;28;20033;-81
2020/12/11 12:31:48;;;;;;;27.17;16.77;;;;;;;;;;4982537;28;20019;-80
2020/12/11 12:44:39;;;;;;;26.87;17.77;;;;;;;;;;4968208;28;20297;-79
2020/12/11 12:47:05;;;;;;;32.03;17.90;;;;;;;;;;4962510;28;20284;-80
2020/12/11 12:49:31;;;;;;;30.47;18.80;;;;;;;;;;4961755;28;20309;-80
2020/12/11 12:51:57;;;;;;;32.03;18.87;;;;;;;;;;4968092;28;20305;-80
2020/12/11 12:54:24;;;;;;;31.50;18.87;;;;;;;;;;4975342;28;20293;-81
2020/12/11 12:56:57;;;;;;;30.63;18.87;;;;;;;;;;4972663;28;20304;-80
2020/12/11 13:07:18;;;;;;;34.10;20.67;;;;;;;;;;4961311;28;20279;-81
2020/12/11 13:09:52;;;;;;;34.77;20.40;;;;;;;;;;4969453;28;20274;-80
2020/12/11 13:12:18;;;;;;;29.80;19.07;;;;;;;;;;4968239;28;20770;-79
2020/12/11 13:14:44;;;;;;;31.57;18.40;;;;;;;;;;4983190;28;20067;-79
2020/12/11 13:17:10;;;;;;;29.70;19.20;;;;;;;;;;4987713;28;20520;-80
2020/12/11 13:19:37;;;;;;;30.60;17.47;;;;;;;;;;4974212;28;20462;-80
2020/12/11 13:27:32;;;;;;;29.57;19.90;;;;;;;;;;4965831;28;20058;-80
2020/12/11 13:29:59;;;;;;;31.97;18.40;;;;;;;;;;4962301;28;20031;-80
2020/12/11 13:32:28;;;;;;;39.23;23.37;;;;;;;;;;4966752;28;20709;-80
2020/12/11 13:34:55;;;;;;;40.90;22.13;;;;;;;;;;4958183;28;20298;-80
2020/12/11 13:37:21;;;;;;;41.70;22.93;;;;;;;;;;4962025;28;20294;-80
2020/12/11 13:39:47;;;;;;;33.23;19.13;;;;;;;;;;4972548;28;20985;-80
2020/12/11 13:42:13;;;;;;;28.17;17.77;;;;;;;;;;4971295;28;20293;-80
2020/12/11 13:44:39;;;;;;;33.10;19.63;;;;;;;;;;4983725;28;20302;-79
2020/12/11 13:47:07;;;;;;;35.33;20.63;;;;;;;;;;4971346;28;20269;-79
2020/12/11 13:49:33;;;;;;;34.97;20.30;;;;;;;;;;4955279;28;20278;-79
2020/12/11 13:51:59;;;;;;;35.13;20.73;;;;;;;;;;4962330;28;20290;-79
2020/12/11 13:54:25;;;;;;;32.27;17.63;;;;;;;;;;4966228;28;20279;-80
2020/12/11 13:56:51;;;;;;;33.23;17.67;;;;;;;;;;4960460;28;20418;-79
2020/12/11 13:59:18;;;;;;;37.27;21.03;;;;;;;;;;4979219;28;20335;-79
2020/12/11 14:01:48;;;;;;;32.53;18.57;;;;;;;;;;4967529;28;20277;-79
2020/12/11 14:04:14;;;;;;;37.37;22.23;;;;;;;;;;4955690;28;20350;-79
2020/12/11 14:06:40;;;;;;;37.47;20.73;;;;;;;;;;4981517;28;20290;-79
2020/12/11 14:09:09;;;;;;;36.53;21.43;;;;;;;;;;4968733;28;20283;-79
2020/12/11 14:11:35;;;;;;;34.30;19.93;;;;;;;;;;4967445;28;20266;-79
2020/12/11 14:14:01;;;;;;;33.60;20.00;;;;;;;;;;4966454;28;20314;-79
2020/12/11 14:16:50;;;;;;;33.83;19.47;;;;;;;;;;4963100;28;20278;-79
2020/12/11 14:19:30;;;;;;;32.07;19.77;;;;;;;;;;4968795;28;20717;-79
2020/12/11 14:22:06;;;;;;;35.30;20.23;;;;;;;;;;4972236;28;20298;-80
2020/12/11 14:24:32;;;;;;;36.33;21.50;;;;;;;;;;4974177;28;20278;-79
2020/12/11 14:26:58;;;;;;;33.10;19.30;;;;;;;;;;4972729;28;20793;-79
2020/12/11 14:29:25;;;;;;;38.80;20.47;;;;;;;;;;4970788;28;20336;-80
2020/12/11 14:31:52;;;;;;;35.83;19.90;;;;;;;;;;4961492;28;20641;-80
2020/12/11 14:34:19;;;;;;;36.87;20.40;;;;;;;;;;4967204;28;20278;-80
2020/12/11 14:36:45;;;;;;;36.03;20.30;;;;;;;;;;4958883;28;20275;-79
2020/12/11 14:39:11;;;;;;;36.00;20.53;;;;;;;;;;4962639;28;20270;-80
2020/12/11 14:41:41;;;;;;;31.93;18.60;;;;;;;;;;4954977;28;20717;-79
2020/12/11 14:44:08;;;;;;;35.50;18.47;;;;;;;;;;4964929;28;20259;-79
2020/12/11 14:46:34;;;;;;;32.90;17.30;;;;;;;;;;4959582;28;20394;-79
2020/12/11 14:49:01;;;;;;;33.57;20.50;;;;;;;;;;4963254;28;20321;-80
2020/12/11 14:51:35;;;;;;;34.20;21.30;;;;;;;;;;4972945;28;20345;-79
2020/12/11 14:54:01;;;;;;;33.73;18.57;;;;;;;;;;4963278;28;20638;-79
2020/12/11 14:56:27;;;;;;;36.97;21.17;;;;;;;;;;4975257;28;20285;-80
2020/12/11 14:58:54;;;;;;;31.97;18.57;;;;;;;;;;4970342;28;20274;-80
2020/12/11 15:01:27;;;;;;;31.53;19.57;;;;;;;;;;4970393;28;20286;-80
2020/12/11 15:03:54;;;;;;;33.70;20.02;;;;;;;;;;4952906;28;20294;-79
2020/12/11 15:06:20;;;;;;;28.87;16.37;;;;;;;;;;4954914;28;20869;-79
2020/12/11 15:08:46;;;;;;;32.30;18.13;;;;;;;;;;4967429;28;20425;-78
2020/12/11 15:11:12;;;;;;;32.33;17.57;;;;;;;;;;4962788;28;20772;-80
2020/12/11 15:13:42;;;;;;;35.47;19.63;;;;;;;;;;4964943;28;20275;-79